createdAt,value
2018-04-16T00:02:16.236Z,7.20
2018-04-16T00:04:44.394Z,7.20
2018-04-16T00:07:12.524Z,7.20
2018-04-16T00:09:40.869Z,7.20
2018-04-16T00:12:09.009Z,7.10
2018-04-16T00:14:37.164Z,7.10
2018-04-16T00:19:39.769Z,7.10
2018-04-16T00:22:07.906Z,7.10
2018-04-16T00:24:36.060Z,7.10
2018-04-16T00:27:04.200Z,7.10
2018-04-16T00:29:32.356Z,7.10
2018-04-16T00:32:06.193Z,7.10
2018-04-16T00:34:40.061Z,7.10
2018-04-16T00:37:13.772Z,7.10
2018-04-16T00:39:47.484Z,7.10
2018-04-16T00:42:21.206Z,7.10
2018-04-16T00:44:54.920Z,7.00
2018-04-16T00:47:28.637Z,7.00
2018-04-16T00:50:02.376Z,7.00
2018-04-16T00:52:36.069Z,7.00
2018-04-16T00:55:09.917Z,6.90
2018-04-16T00:57:43.648Z,6.90
2018-04-16T01:00:17.487Z,6.90
2018-04-16T01:02:51.232Z,6.90
2018-04-16T01:05:24.984Z,6.90
2018-04-16T01:07:58.685Z,6.80
2018-04-16T01:10:32.452Z,6.80
2018-04-16T01:13:06.144Z,6.90
2018-04-16T01:18:41.696Z,6.80
2018-04-16T01:21:15.416Z,6.80
2018-04-16T01:23:49.136Z,6.80
2018-04-16T01:26:22.878Z,6.80
2018-04-16T01:28:56.696Z,6.70
2018-04-16T01:31:30.568Z,6.70
2018-04-16T01:34:04.273Z,6.60
2018-04-16T01:36:38.772Z,6.60
2018-04-16T01:39:12.509Z,6.60
2018-04-16T01:41:47.047Z,6.60
2018-04-16T01:44:20.756Z,6.60
2018-04-16T01:46:54.553Z,6.60
2018-04-16T01:49:28.246Z,6.60
2018-04-16T01:52:02.084Z,6.60
2018-04-16T01:54:35.803Z,6.60
2018-04-16T01:57:09.541Z,6.60
2018-04-16T01:59:43.356Z,6.60
2018-04-16T02:02:17.948Z,6.60
2018-04-16T02:07:54.675Z,6.60
2018-04-16T02:10:28.410Z,6.60
2018-04-16T02:13:13.275Z,6.60
2018-04-16T02:15:47.014Z,6.60
2018-04-16T02:18:20.785Z,6.60
2018-04-16T02:20:54.511Z,6.60
2018-04-16T02:23:43.365Z,6.60
2018-04-16T02:26:17.256Z,6.60
2018-04-16T02:28:50.962Z,6.60
2018-04-16T02:31:24.684Z,6.60
2018-04-16T02:33:58.399Z,6.60
2018-04-16T02:36:32.117Z,6.60
2018-04-16T02:39:05.813Z,6.70
2018-04-16T02:41:39.548Z,6.70
2018-04-16T02:44:13.232Z,6.70
2018-04-16T02:46:46.981Z,6.70
2018-04-16T02:49:20.797Z,6.70
2018-04-16T02:51:54.512Z,6.70
2018-04-16T02:57:33.364Z,6.70
2018-04-16T03:00:07.061Z,6.80
2018-04-16T03:02:40.764Z,6.80
2018-04-16T03:05:14.488Z,6.80
2018-04-16T03:07:48.209Z,6.80
2018-04-16T03:10:21.911Z,6.80
2018-04-16T03:12:55.632Z,6.80
2018-04-16T03:15:29.321Z,6.80
2018-04-16T03:18:03.065Z,6.80
2018-04-16T03:20:36.880Z,6.80
2018-04-16T03:23:10.740Z,6.80
2018-04-16T03:25:44.436Z,6.80
2018-04-16T03:28:18.152Z,6.90
2018-04-16T03:30:51.880Z,6.90
2018-04-16T03:33:26.404Z,6.90
2018-04-16T03:36:00.852Z,6.90
2018-04-16T03:38:34.596Z,6.90
2018-04-16T03:41:08.291Z,7.00
2018-04-16T03:43:42.020Z,7.00
2018-04-16T03:46:16.532Z,7.10
2018-04-16T03:48:50.256Z,7.10
2018-04-16T03:51:24.316Z,7.10
2018-04-16T03:53:52.475Z,7.10
2018-04-16T03:56:20.606Z,7.20
2018-04-16T03:58:48.769Z,7.20
2018-04-16T04:01:16.914Z,7.20
2018-04-16T04:03:45.077Z,7.20
2018-04-16T04:06:13.227Z,7.30
2018-04-16T04:08:41.393Z,7.30
2018-04-16T04:11:09.520Z,7.30
2018-04-16T04:13:37.676Z,7.40
2018-04-16T04:16:05.814Z,7.40
2018-04-16T04:18:33.972Z,7.40
2018-04-16T04:21:02.109Z,7.40
2018-04-16T04:23:42.022Z,7.40
2018-04-16T04:26:21.862Z,7.50
2018-04-16T04:29:01.652Z,7.50
2018-04-16T04:31:29.830Z,7.50
2018-04-16T04:33:57.997Z,7.50
2018-04-16T04:36:26.131Z,7.50
2018-04-16T04:38:54.290Z,7.50
2018-04-16T04:41:23.192Z,7.60
2018-04-16T04:43:51.354Z,7.50
2018-04-16T04:46:20.259Z,7.60
2018-04-16T04:48:48.419Z,7.60
2018-04-16T04:51:17.330Z,7.60
2018-04-16T04:53:45.501Z,7.60
2018-04-16T04:56:13.632Z,7.60
2018-04-16T04:58:41.769Z,7.70
2018-04-16T05:01:09.929Z,7.70
2018-04-16T05:03:38.074Z,7.70
2018-04-16T05:06:06.993Z,7.80
2018-04-16T05:08:35.123Z,7.80
2018-04-16T05:11:03.288Z,7.80
2018-04-16T05:13:31.421Z,7.80
2018-04-16T05:15:59.585Z,7.90
2018-04-16T05:18:27.716Z,7.90
2018-04-16T05:20:55.884Z,7.90
2018-04-16T05:23:24.020Z,7.90
2018-04-16T05:25:52.185Z,8.00
2018-04-16T05:28:20.323Z,8.00
2018-04-16T05:30:49.244Z,8.10
2018-04-16T05:33:17.375Z,8.00
2018-04-16T05:35:45.537Z,8.10
2018-04-16T05:38:13.683Z,8.10
2018-04-16T05:40:41.866Z,8.10
2018-04-16T05:43:10.001Z,8.20
2018-04-16T05:45:38.161Z,8.20
2018-04-16T05:48:06.297Z,8.30
2018-04-16T05:50:34.458Z,8.30
2018-04-16T05:53:02.600Z,8.30
2018-04-16T05:55:30.760Z,8.40
2018-04-16T05:57:58.892Z,8.40
2018-04-16T06:00:27.107Z,8.50
2018-04-16T06:02:55.204Z,8.50
2018-04-16T06:05:23.356Z,8.60
2018-04-16T06:07:51.492Z,8.60
2018-04-16T06:10:19.656Z,8.60
2018-04-16T06:12:47.800Z,8.70
2018-04-16T06:15:15.952Z,8.70
2018-04-16T06:17:44.092Z,8.70
2018-04-16T06:20:12.255Z,8.70
2018-04-16T06:22:40.428Z,8.70
2018-04-16T06:25:08.569Z,8.70
2018-04-16T06:27:36.733Z,8.80
2018-04-16T06:30:04.864Z,8.80
2018-04-16T06:32:33.032Z,8.80
2018-04-16T06:35:01.168Z,8.90
2018-04-16T06:37:29.332Z,8.90
2018-04-16T06:39:57.474Z,8.90
2018-04-16T06:42:25.687Z,9.00
2018-04-16T06:44:53.800Z,8.90
2018-04-16T06:47:21.964Z,9.00
2018-04-16T06:49:50.099Z,9.00
2018-04-16T06:52:18.258Z,9.00
2018-04-16T06:54:46.424Z,9.00
2018-04-16T06:57:14.587Z,9.00
2018-04-16T06:59:43.610Z,9.00
2018-04-16T07:02:11.783Z,9.00
2018-04-16T07:04:39.928Z,9.10
2018-04-16T07:07:08.112Z,9.10
2018-04-16T07:09:36.258Z,9.10
2018-04-16T07:12:04.421Z,9.20
2018-04-16T07:14:32.566Z,9.20
2018-04-16T07:17:01.801Z,9.20
2018-04-16T07:19:30.031Z,9.30
2018-04-16T07:21:58.306Z,9.30
2018-04-16T07:24:26.710Z,9.30
2018-04-16T07:26:54.881Z,9.30
2018-04-16T07:29:23.020Z,9.40
2018-04-16T07:31:51.176Z,9.40
2018-04-16T07:34:19.390Z,9.40
2018-04-16T07:36:47.566Z,9.50
2018-04-16T07:39:15.740Z,9.50
2018-04-16T07:41:43.900Z,9.50
2018-04-16T07:44:12.045Z,9.50
2018-04-16T07:46:40.999Z,9.60
2018-04-16T07:49:09.171Z,9.60
2018-04-16T07:51:37.363Z,9.70
2018-04-16T07:54:05.508Z,9.70
2018-04-16T07:56:33.673Z,9.70
2018-04-16T07:59:01.908Z,9.80
2018-04-16T08:01:30.884Z,9.80
2018-04-16T08:03:59.028Z,9.80
2018-04-16T08:06:27.183Z,9.80
2018-04-16T08:08:55.349Z,9.90
2018-04-16T08:11:27.644Z,9.90
2018-04-16T08:13:55.915Z,9.90
2018-04-16T08:16:24.094Z,9.90
2018-04-16T08:18:52.236Z,9.90
2018-04-16T08:21:20.396Z,10.00
2018-04-16T08:23:48.573Z,10.10
2018-04-16T08:26:16.720Z,10.10
2018-04-16T08:28:44.884Z,10.20
2018-04-16T08:31:13.020Z,10.20
2018-04-16T08:33:41.300Z,10.30
2018-04-16T08:36:09.676Z,10.40
2018-04-16T08:38:38.174Z,10.50
2018-04-16T08:41:06.361Z,10.50
2018-04-16T08:43:34.531Z,10.50
2018-04-16T08:46:02.674Z,10.60
2018-04-16T08:48:30.836Z,10.60
2018-04-16T08:50:58.978Z,10.60
2018-04-16T08:53:27.136Z,10.70
2018-04-16T08:55:55.272Z,10.70
2018-04-16T08:58:23.440Z,10.70
2018-04-16T09:00:51.686Z,10.80
2018-04-16T09:03:20.612Z,11.00
2018-04-16T09:05:48.748Z,10.90
2018-04-16T09:08:17.676Z,11.10
2018-04-16T09:10:45.812Z,11.10
2018-04-16T09:13:14.736Z,11.10
2018-04-16T09:15:42.874Z,11.10
2018-04-16T09:18:11.800Z,11.20
2018-04-16T09:20:39.944Z,11.20
2018-04-16T09:23:08.108Z,11.30
2018-04-16T09:25:36.244Z,11.40
2018-04-16T09:28:04.404Z,11.50
2018-04-16T09:30:32.655Z,11.50
2018-04-16T09:33:00.892Z,11.70
2018-04-16T09:35:28.982Z,11.80
2018-04-16T09:37:57.931Z,11.90
2018-04-16T09:40:26.084Z,11.90
2018-04-16T09:42:54.249Z,11.90
2018-04-16T09:45:22.389Z,12.00
2018-04-16T09:47:50.548Z,12.10
2018-04-16T09:50:18.735Z,12.10
2018-04-16T09:52:46.879Z,12.30
2018-04-16T09:55:15.781Z,12.30
2018-04-16T09:57:43.954Z,12.20
2018-04-16T10:00:12.089Z,12.40
2018-04-16T10:02:45.992Z,12.50
2018-04-16T10:05:14.133Z,12.60
2018-04-16T10:07:43.055Z,12.90
2018-04-16T10:10:11.235Z,12.80
2018-04-16T10:12:39.404Z,13.00
2018-04-16T10:15:07.544Z,13.00
2018-04-16T10:17:35.730Z,13.10
2018-04-16T10:20:04.881Z,13.30
2018-04-16T10:22:33.049Z,13.30
2018-04-16T10:25:01.186Z,13.30
2018-04-16T10:27:29.332Z,13.30
2018-04-16T10:29:57.497Z,13.40
2018-04-16T10:32:25.655Z,13.50
2018-04-16T10:34:53.816Z,13.60
2018-04-16T10:37:21.948Z,13.80
2018-04-16T10:39:50.112Z,13.80
2018-04-16T10:42:18.260Z,13.80
2018-04-16T10:44:46.425Z,13.90
2018-04-16T10:47:14.571Z,14.10
2018-04-16T10:49:42.747Z,14.20
2018-04-16T10:52:10.900Z,14.30
2018-04-16T10:54:39.080Z,14.50
2018-04-16T10:57:07.216Z,14.50
2018-04-16T10:59:35.390Z,14.50
2018-04-16T11:02:03.544Z,14.50
2018-04-16T11:04:31.716Z,14.60
2018-04-16T11:06:59.854Z,14.70
2018-04-16T11:09:28.029Z,14.70
2018-04-16T11:11:56.188Z,14.80
2018-04-16T11:14:24.352Z,14.90
2018-04-16T11:16:52.500Z,14.90
2018-04-16T11:19:21.428Z,15.00
2018-04-16T11:21:49.564Z,15.00
2018-04-16T11:24:18.512Z,15.10
2018-04-16T11:26:46.656Z,15.10
2018-04-16T11:29:14.820Z,15.10
2018-04-16T11:31:42.960Z,15.10
2018-04-16T11:34:11.463Z,14.90
2018-04-16T11:36:40.372Z,15.00
2018-04-16T11:39:08.552Z,15.00
2018-04-16T11:41:36.691Z,15.00
2018-04-16T11:44:04.856Z,14.90
2018-04-16T11:46:32.997Z,14.90
2018-04-16T11:49:01.159Z,14.90
2018-04-16T11:51:29.300Z,14.90
2018-04-16T11:53:57.464Z,15.00
2018-04-16T11:56:25.617Z,15.10
2018-04-16T11:58:53.816Z,15.30
2018-04-16T12:01:21.998Z,15.40
2018-04-16T12:03:50.164Z,15.60
2018-04-16T12:06:19.067Z,15.60
2018-04-16T12:08:47.467Z,15.60
2018-04-16T12:11:15.600Z,15.70
2018-04-16T12:13:44.556Z,15.80
2018-04-16T12:16:12.702Z,15.80
2018-04-16T12:18:40.884Z,15.70
2018-04-16T12:21:09.054Z,15.60
2018-04-16T12:23:37.187Z,15.70
2018-04-16T12:26:06.137Z,16.00
2018-04-16T12:28:34.281Z,16.00
2018-04-16T12:31:02.472Z,16.20
2018-04-16T12:33:30.626Z,16.20
2018-04-16T12:35:58.795Z,16.10
2018-04-16T12:38:27.703Z,16.00
2018-04-16T12:40:55.868Z,16.00
2018-04-16T12:43:24.032Z,15.80
2018-04-16T12:45:52.210Z,15.80
2018-04-16T12:48:20.358Z,15.80
2018-04-16T12:50:48.528Z,15.90
2018-04-16T12:53:16.674Z,15.80
2018-04-16T12:55:44.853Z,15.70
2018-04-16T12:58:13.001Z,15.70
2018-04-16T13:00:41.164Z,15.80
2018-04-16T13:03:09.308Z,15.90
2018-04-16T13:05:37.474Z,15.90
2018-04-16T13:08:06.387Z,16.00
2018-04-16T13:10:34.552Z,16.00
2018-04-16T13:13:03.457Z,16.30
2018-04-16T13:15:31.650Z,16.20
2018-04-16T13:17:59.802Z,16.20
2018-04-16T13:20:27.959Z,16.20
2018-04-16T13:22:56.104Z,16.30
2018-04-16T13:25:24.637Z,16.30
2018-04-16T13:27:52.777Z,16.40
2018-04-16T13:30:20.943Z,16.30
2018-04-16T13:32:49.093Z,16.30
2018-04-16T13:35:17.261Z,16.30
2018-04-16T13:37:45.408Z,16.30
2018-04-16T13:40:13.573Z,16.40
2018-04-16T13:42:41.714Z,16.40
2018-04-16T13:45:09.876Z,16.40
2018-04-16T13:47:38.015Z,16.30
2018-04-16T13:50:06.199Z,16.30
2018-04-16T13:52:34.353Z,16.30
2018-04-16T13:55:02.633Z,16.30
2018-04-16T13:57:30.962Z,16.30
2018-04-16T13:59:59.346Z,16.20
2018-04-16T14:02:27.496Z,16.20
2018-04-16T14:04:55.690Z,16.20
2018-04-16T14:07:23.853Z,16.20
2018-04-16T14:09:52.030Z,16.30
2018-04-16T14:12:20.196Z,16.30
2018-04-16T14:14:48.356Z,16.30
2018-04-16T14:17:16.534Z,16.30
2018-04-16T14:19:44.679Z,16.30
2018-04-16T14:22:12.920Z,16.40
2018-04-16T14:24:41.846Z,16.30
2018-04-16T14:27:10.118Z,16.30
2018-04-16T14:29:38.366Z,16.30
2018-04-16T14:32:07.315Z,16.30
2018-04-16T14:34:35.460Z,16.30
2018-04-16T14:37:03.629Z,16.30
2018-04-16T14:39:31.780Z,16.30
2018-04-16T14:41:59.957Z,16.40
2018-04-16T14:44:28.902Z,16.40
2018-04-16T14:46:57.071Z,16.40
2018-04-16T14:49:25.281Z,16.40
2018-04-16T14:51:53.474Z,16.40
2018-04-16T14:54:22.379Z,16.30
2018-04-16T14:56:50.554Z,16.30
2018-04-16T14:59:18.711Z,16.20
2018-04-16T15:01:46.923Z,16.30
2018-04-16T15:04:15.067Z,16.30
2018-04-16T15:06:43.241Z,16.20
2018-04-16T15:09:11.385Z,16.20
2018-04-16T15:11:39.553Z,16.30
2018-04-16T15:14:07.713Z,16.20
2018-04-16T15:16:35.918Z,16.20
2018-04-16T15:19:04.070Z,16.20
2018-04-16T15:21:32.301Z,16.20
2018-04-16T15:24:00.481Z,16.10
2018-04-16T15:26:28.683Z,16.00
2018-04-16T15:28:56.861Z,16.00
2018-04-16T15:31:25.048Z,16.00
2018-04-16T15:33:53.188Z,16.00
2018-04-16T15:36:21.372Z,16.00
2018-04-16T15:38:49.520Z,15.90
2018-04-16T15:41:17.692Z,15.90
2018-04-16T15:43:45.835Z,15.80
2018-04-16T15:46:14.023Z,15.80
2018-04-16T15:48:42.182Z,15.70
2018-04-16T15:51:11.138Z,15.70
2018-04-16T15:53:39.293Z,15.70
2018-04-16T15:56:07.461Z,15.70
2018-04-16T15:58:35.635Z,15.60
2018-04-16T16:01:03.810Z,15.60
2018-04-16T16:03:31.961Z,15.60
2018-04-16T16:06:00.152Z,15.50
2018-04-16T16:08:28.315Z,15.50
2018-04-16T16:10:56.487Z,15.40
2018-04-16T16:13:24.645Z,15.50
2018-04-16T16:15:52.817Z,15.40
2018-04-16T16:18:21.752Z,15.40
2018-04-16T16:20:49.925Z,15.30
2018-04-16T16:23:18.107Z,15.30
2018-04-16T16:25:46.251Z,15.30
2018-04-16T16:28:14.723Z,15.20
2018-04-16T16:30:42.884Z,15.20
2018-04-16T16:33:11.096Z,15.10
2018-04-16T16:35:39.256Z,15.10
2018-04-16T16:38:07.423Z,15.00
2018-04-16T16:40:35.562Z,14.90
2018-04-16T16:43:04.525Z,14.80
2018-04-16T16:45:33.435Z,14.70
2018-04-16T16:48:01.718Z,14.70
2018-04-16T16:50:29.905Z,14.60
2018-04-16T16:52:58.094Z,14.60
2018-04-16T16:55:26.262Z,14.50
2018-04-16T16:57:55.239Z,14.30
2018-04-16T17:00:23.380Z,14.30
2018-04-16T17:02:51.552Z,14.30
2018-04-16T17:05:19.705Z,14.20
2018-04-16T17:07:47.904Z,14.10
2018-04-16T17:10:16.058Z,14.00
2018-04-16T17:12:44.228Z,14.00
2018-04-16T17:15:12.373Z,13.90
2018-04-16T17:17:41.335Z,13.80
2018-04-16T17:20:09.517Z,13.80
2018-04-16T17:22:37.700Z,13.70
2018-04-16T17:25:05.842Z,13.60
2018-04-16T17:27:34.008Z,13.60
2018-04-16T17:30:02.154Z,13.50
2018-04-16T17:32:30.330Z,13.40
2018-04-16T17:34:58.485Z,13.40
2018-04-16T17:37:27.461Z,13.30
2018-04-16T17:39:55.614Z,13.30
2018-04-16T17:44:58.147Z,13.30
2018-04-16T17:47:26.321Z,13.20
2018-04-16T17:49:54.458Z,13.20
2018-04-16T17:52:22.629Z,13.20
2018-04-16T17:54:50.779Z,13.20
2018-04-16T17:57:18.948Z,13.10
2018-04-16T17:59:47.120Z,13.00
2018-04-16T18:02:15.284Z,12.90
2018-04-16T18:04:43.423Z,12.80
2018-04-16T18:07:11.593Z,12.70
2018-04-16T18:09:39.738Z,12.60
2018-04-16T18:12:07.933Z,12.60
2018-04-16T18:14:36.127Z,12.50
2018-04-16T18:17:04.448Z,12.40
2018-04-16T18:19:42.097Z,12.20
2018-04-16T18:22:14.153Z,12.10
2018-04-16T18:24:47.889Z,12.00
2018-04-16T18:29:55.230Z,11.90
2018-04-16T18:32:24.338Z,11.70
2018-04-16T18:34:52.490Z,11.70
2018-04-16T18:37:20.698Z,11.70
2018-04-16T18:39:48.878Z,11.60
2018-04-16T18:42:17.594Z,11.60
2018-04-16T18:44:45.740Z,11.50
2018-04-16T18:47:13.925Z,11.50
2018-04-16T18:49:42.084Z,11.40
2018-04-16T18:52:10.235Z,11.40
2018-04-16T18:54:38.425Z,11.30
2018-04-16T18:57:06.607Z,11.30
2018-04-16T18:59:34.781Z,11.20
2018-04-16T19:02:02.940Z,11.10
2018-04-16T19:04:32.642Z,10.90
2018-04-16T19:07:00.809Z,11.00
2018-04-16T19:09:29.021Z,10.90
2018-04-16T19:11:57.171Z,10.90
2018-04-16T19:14:25.357Z,10.90
2018-04-16T19:16:53.592Z,10.80
2018-04-16T19:19:26.014Z,10.80
2018-04-16T19:21:55.630Z,10.70
2018-04-16T19:24:24.816Z,10.70
2018-04-16T19:26:58.668Z,10.60
2018-04-16T19:29:26.858Z,10.60
2018-04-16T19:31:55.057Z,10.50
2018-04-16T19:34:28.989Z,10.40
2018-04-16T19:36:57.144Z,10.40
2018-04-16T19:39:25.472Z,10.40
2018-04-16T19:41:59.311Z,10.30
2018-04-16T19:44:27.567Z,10.30
2018-04-16T19:46:55.834Z,10.30
2018-04-16T19:49:29.696Z,10.20
2018-04-16T19:51:57.876Z,10.20
2018-04-16T19:54:26.083Z,10.10
2018-04-16T19:56:59.788Z,10.10
2018-04-16T19:59:27.984Z,10.10
2018-04-16T20:02:01.899Z,10.10
2018-04-16T20:04:30.209Z,10.00
2018-04-16T20:06:58.357Z,10.00
2018-04-16T20:09:26.632Z,10.00
2018-04-16T20:11:55.383Z,10.00
2018-04-16T20:14:23.587Z,9.90
2018-04-16T20:16:51.791Z,9.90
2018-04-16T20:19:19.964Z,9.90
2018-04-16T20:21:48.105Z,9.90
2018-04-16T20:24:16.268Z,9.90
2018-04-16T20:26:44.417Z,9.90
2018-04-16T20:29:12.599Z,9.80
2018-04-16T20:31:40.753Z,9.80
2018-04-16T20:34:08.917Z,9.80
2018-04-16T20:36:37.052Z,9.70
2018-04-16T20:39:06.134Z,9.70
2018-04-16T20:41:34.268Z,9.60
2018-04-16T20:44:02.441Z,9.60
2018-04-16T20:46:30.571Z,9.60
2018-04-16T20:48:58.735Z,9.50
2018-04-16T20:51:26.872Z,9.50
2018-04-16T20:53:55.028Z,9.50
2018-04-16T20:56:23.172Z,9.50
2018-04-16T20:58:51.328Z,9.50
2018-04-16T21:01:19.468Z,9.50
2018-04-16T21:03:47.632Z,9.50
2018-04-16T21:06:15.773Z,9.50
2018-04-16T21:08:43.913Z,9.60
2018-04-16T21:11:12.099Z,9.60
2018-04-16T21:13:40.235Z,9.60
2018-04-16T21:16:08.394Z,9.70
2018-04-16T21:18:37.721Z,9.70
2018-04-16T21:21:05.884Z,9.70
2018-04-16T21:23:34.041Z,9.80
2018-04-16T21:26:02.205Z,9.80
2018-04-16T21:28:30.336Z,9.80
2018-04-16T21:30:58.498Z,9.80
2018-04-16T21:33:26.637Z,9.90
2018-04-16T21:35:54.806Z,9.90
2018-04-16T21:38:22.948Z,9.90
2018-04-16T21:40:51.108Z,9.90
2018-04-16T21:43:19.244Z,9.90
2018-04-16T21:45:47.404Z,9.90
2018-04-16T21:48:16.302Z,9.90
2018-04-16T21:50:44.470Z,9.90
2018-04-16T21:53:13.378Z,9.80
2018-04-16T21:55:41.536Z,9.80
2018-04-16T21:58:10.441Z,9.80
2018-04-16T22:00:38.611Z,9.80
2018-04-16T22:03:06.756Z,9.80
2018-04-16T22:05:34.918Z,9.80
2018-04-16T22:08:03.048Z,9.80
2018-04-16T22:10:31.276Z,9.80
2018-04-16T22:12:59.378Z,9.90
2018-04-16T22:15:27.536Z,9.90
2018-04-16T22:17:55.680Z,9.90
2018-04-16T22:20:23.840Z,9.90
2018-04-16T22:22:51.964Z,9.90
2018-04-16T22:25:20.129Z,9.90
2018-04-16T22:27:48.261Z,9.90
2018-04-16T22:30:16.420Z,9.90
2018-04-16T22:32:44.552Z,9.90
2018-04-16T22:35:12.713Z,9.90
2018-04-16T22:37:40.878Z,10.00
2018-04-16T22:40:09.040Z,10.00
2018-04-16T22:42:37.185Z,10.00
2018-04-16T22:45:05.352Z,10.00
2018-04-16T22:47:33.507Z,10.00
2018-04-16T22:50:01.681Z,10.00
2018-04-16T22:52:29.819Z,10.00
2018-04-16T22:54:57.984Z,10.00
2018-04-16T22:57:26.119Z,10.00
2018-04-16T22:59:54.300Z,10.00
2018-04-16T23:02:22.436Z,9.90
2018-04-16T23:04:50.596Z,9.90
2018-04-16T23:07:18.731Z,9.90
2018-04-16T23:09:46.871Z,9.80
2018-04-16T23:12:15.030Z,9.80
2018-04-16T23:14:43.160Z,9.70
2018-04-16T23:17:11.320Z,9.70
2018-04-16T23:19:39.459Z,9.70
2018-04-16T23:22:07.620Z,9.60
2018-04-16T23:24:35.764Z,9.60
2018-04-16T23:27:03.928Z,9.60
2018-04-16T23:29:32.069Z,9.50
2018-04-16T23:32:00.230Z,9.50
2018-04-16T23:34:28.364Z,9.50
2018-04-16T23:36:56.536Z,9.40
2018-04-16T23:39:27.659Z,9.40
2018-04-16T23:41:55.821Z,9.30
2018-04-16T23:44:23.952Z,9.40
2018-04-16T23:46:52.112Z,9.30
2018-04-16T23:49:20.247Z,9.30
2018-04-16T23:51:48.413Z,9.30
2018-04-16T23:54:16.548Z,9.30
2018-04-16T23:56:44.711Z,9.30
2018-04-16T23:59:12.844Z,9.30
